Aviation Digital Data Service (ADDS)

Output produced by METARs form (1318 UTC 10 July 2020)
found at http://www.aviationweather.gov/metar/data/
 
KCHS 101256Z 01003KT 10SM SCT080 SCT110 28/23 A2991 RMK AO2 SLP128 T02780233
KCHS 101125Z 1012/1112 34005KT P6SM SCT030 BKN050 
     FM101900 15007KT P6SM VCTS SCT035CB BKN060 
     FM102300 20007KT P6SM SCT040 BKN080